Wichita Falls, Texas
Current Conditions -  °F | °C
As of 2:15 PM on Thursday 29 Jan 2015 (Local Time) from KCWC Reporting Station
Clear Clear  
Wind Chill: 44°   Ceiling: Unl
Heat Index: 50°   Visibility: 10mi
Dew Point: 26°   Wind: 15mph
Humidity: 40%   Direction: 360°N
Pressure: 30.39"   Gusts: 28mph
Location:  33.91°N, 98.5°W
Report Text: KCWC 292015Z AUTO 36013G24KT 10SM CLR 10/M03 A3039 RMK AO2 T00991031
Loading
Personal Weather Stations






























Interactive Weather Map New forecast layout! Learn more

10-Day Weather Forecast

Advertisements
Track Severe Weather on mobile